createdAt,value
2019-05-20T00:01:45.892Z,13.40
2019-05-20T00:04:12.801Z,13.41
2019-05-20T00:06:39.747Z,13.43
2019-05-20T00:09:06.710Z,13.45
2019-05-20T00:11:33.996Z,13.46
2019-05-20T00:14:00.947Z,13.44
2019-05-20T00:16:27.905Z,13.47
2019-05-20T00:18:55.020Z,13.49
2019-05-20T00:21:21.974Z,13.50
2019-05-20T00:23:48.920Z,13.55
2019-05-20T00:26:15.898Z,13.56
2019-05-20T00:28:42.894Z,13.60
2019-05-20T00:31:09.853Z,13.61
2019-05-20T00:33:36.834Z,13.62
2019-05-20T00:36:03.775Z,13.63
2019-05-20T00:38:31.356Z,13.66
2019-05-20T00:40:58.354Z,13.65
2019-05-20T00:43:37.173Z,13.63
2019-05-20T00:46:04.183Z,13.64
2019-05-20T00:48:31.160Z,13.60
2019-05-20T00:50:58.087Z,13.62
2019-05-20T00:53:25.187Z,13.67
2019-05-20T00:55:52.133Z,13.62
2019-05-20T00:58:19.387Z,13.65
2019-05-20T01:00:46.339Z,13.64
2019-05-20T01:03:13.638Z,13.63
2019-05-20T01:05:40.740Z,13.62
2019-05-20T01:08:07.684Z,13.64
2019-05-20T01:10:34.605Z,13.63
2019-05-20T01:13:01.576Z,13.64
2019-05-20T01:15:30.801Z,13.65
2019-05-20T01:17:57.839Z,13.65
2019-05-20T01:20:24.846Z,13.66
2019-05-20T01:22:51.777Z,13.68
2019-05-20T01:25:18.754Z,13.69
2019-05-20T01:27:45.709Z,13.72
2019-05-20T01:30:13.573Z,13.72
2019-05-20T01:32:40.581Z,13.73
2019-05-20T01:35:07.817Z,13.73
2019-05-20T01:37:34.753Z,13.71
2019-05-20T01:40:01.731Z,13.71
2019-05-20T01:42:28.685Z,13.70
2019-05-20T01:44:55.838Z,13.69
2019-05-20T01:47:22.770Z,13.70
2019-05-20T01:49:49.747Z,13.70
2019-05-20T01:52:16.733Z,13.68
2019-05-20T01:54:43.714Z,13.67
2019-05-20T01:57:10.680Z,13.68
2019-05-20T01:59:37.601Z,13.67
2019-05-20T02:02:04.682Z,13.67
2019-05-20T02:04:31.635Z,13.68
2019-05-20T02:06:58.572Z,13.67
2019-05-20T02:09:25.588Z,13.69
2019-05-20T02:11:52.535Z,13.67
2019-05-20T02:14:22.379Z,13.64
2019-05-20T02:16:49.426Z,13.63
2019-05-20T02:19:16.381Z,13.63
2019-05-20T02:21:43.448Z,13.62
2019-05-20T02:24:10.593Z,13.61
2019-05-20T02:26:37.532Z,13.60
2019-05-20T02:29:04.497Z,13.59
2019-05-20T02:31:31.474Z,13.59
2019-05-20T02:33:58.418Z,13.58
2019-05-20T02:36:25.396Z,13.59
2019-05-20T02:38:52.341Z,13.59
2019-05-20T02:41:19.281Z,13.59
2019-05-20T02:43:46.363Z,13.60
2019-05-20T02:46:13.315Z,13.59
2019-05-20T02:48:40.548Z,13.60
2019-05-20T02:51:07.956Z,13.59
2019-05-20T02:53:34.905Z,13.60
2019-05-20T02:56:01.842Z,13.60
2019-05-20T02:58:28.849Z,13.59
2019-05-20T03:00:55.804Z,13.58
2019-05-20T03:03:22.743Z,13.58
2019-05-20T03:05:49.725Z,13.57
2019-05-20T03:08:16.673Z,13.56
2019-05-20T03:10:45.437Z,13.55
2019-05-20T03:13:12.410Z,13.56
2019-05-20T03:15:39.436Z,13.54
2019-05-20T03:18:06.392Z,13.52
2019-05-20T03:20:33.372Z,13.53
2019-05-20T03:23:00.346Z,13.50
2019-05-20T03:25:27.278Z,13.49
2019-05-20T03:27:54.258Z,13.49
2019-05-20T03:30:21.323Z,13.51
2019-05-20T03:32:48.445Z,13.51
2019-05-20T03:35:15.737Z,13.51
2019-05-20T03:37:42.676Z,13.52
2019-05-20T03:40:09.833Z,13.51
2019-05-20T03:42:36.817Z,13.51
2019-05-20T03:45:04.866Z,13.53
2019-05-20T03:47:31.810Z,13.54
2019-05-20T03:49:58.779Z,13.57
2019-05-20T03:52:25.728Z,13.55
2019-05-20T03:54:52.689Z,13.53
2019-05-20T03:57:21.892Z,13.54
2019-05-20T03:59:49.944Z,13.56
2019-05-20T04:02:16.903Z,13.55
2019-05-20T04:05:00.611Z,13.58
2019-05-20T04:07:14.135Z,13.57
2019-05-20T04:09:41.088Z,13.58
2019-05-20T04:12:08.045Z,13.57
2019-05-20T04:14:35.038Z,13.57
2019-05-20T04:17:03.799Z,13.60
2019-05-20T04:19:30.800Z,13.58
2019-05-20T04:21:59.410Z,13.54
2019-05-20T04:24:26.446Z,13.53
2019-05-20T04:26:57.797Z,13.51
2019-05-20T04:29:24.776Z,13.51
2019-05-20T04:31:53.332Z,13.51
2019-05-20T04:34:20.256Z,13.50
2019-05-20T04:36:47.245Z,13.48
2019-05-20T04:39:14.202Z,13.46
2019-05-20T04:41:41.256Z,13.47
2019-05-20T04:44:08.235Z,13.45
2019-05-20T04:46:37.269Z,13.51
2019-05-20T04:49:06.094Z,13.50
2019-05-20T04:51:33.074Z,13.51
2019-05-20T04:53:59.994Z,13.53
2019-05-20T04:56:29.477Z,13.53
2019-05-20T04:58:56.684Z,13.55
2019-05-20T05:01:23.630Z,13.59
2019-05-20T05:03:50.582Z,13.64
2019-05-20T05:06:17.558Z,13.68
2019-05-20T05:08:44.505Z,13.71
2019-05-20T05:11:11.491Z,13.71
2019-05-20T05:13:38.453Z,13.76
2019-05-20T05:16:05.501Z,13.75
2019-05-20T05:18:32.571Z,13.78
2019-05-20T05:20:59.564Z,13.80
2019-05-20T05:23:26.544Z,13.86
2019-05-20T05:25:54.583Z,13.88
2019-05-20T05:28:21.596Z,13.88
2019-05-20T05:30:48.745Z,13.92
2019-05-20T05:33:16.802Z,13.95
2019-05-20T05:35:52.734Z,13.93
2019-05-20T05:38:12.662Z,13.93
2019-05-20T05:40:39.585Z,13.93
2019-05-20T05:43:06.915Z,13.90
2019-05-20T05:45:33.960Z,13.81
2019-05-20T05:48:01.418Z,13.75
2019-05-20T05:50:28.639Z,13.78
2019-05-20T05:52:56.252Z,13.77
2019-05-20T05:55:24.442Z,13.70
2019-05-20T05:57:51.445Z,13.70
2019-05-20T06:00:19.894Z,13.68
2019-05-20T06:02:46.913Z,13.68
2019-05-20T06:05:14.124Z,13.72
2019-05-20T06:07:41.124Z,13.73
2019-05-20T06:10:08.291Z,13.80
2019-05-20T06:12:35.296Z,13.89
2019-05-20T06:15:04.075Z,13.94
2019-05-20T06:17:31.033Z,13.95
2019-05-20T06:20:00.037Z,14.03
2019-05-20T06:22:27.060Z,14.03
2019-05-20T06:24:54.096Z,14.01
2019-05-20T06:27:21.043Z,14.06
2019-05-20T06:29:47.980Z,14.07
2019-05-20T06:32:15.389Z,14.15
2019-05-20T06:34:43.241Z,14.16
2019-05-20T06:37:12.259Z,14.06
2019-05-20T06:39:39.248Z,14.00
2019-05-20T06:42:06.197Z,14.00
2019-05-20T06:44:33.131Z,13.99
2019-05-20T06:47:00.117Z,13.99
2019-05-20T06:49:27.077Z,14.01
2019-05-20T06:51:54.034Z,14.06
2019-05-20T06:54:21.083Z,14.20
2019-05-20T06:56:48.727Z,14.17
2019-05-20T06:59:15.801Z,14.22
2019-05-20T07:01:42.824Z,14.26
2019-05-20T07:04:09.801Z,14.22
2019-05-20T07:06:46.725Z,14.20
2019-05-20T07:09:05.884Z,14.14
2019-05-20T07:11:32.814Z,14.21
2019-05-20T07:13:59.748Z,14.21
2019-05-20T07:16:26.772Z,14.19
2019-05-20T07:18:53.735Z,14.21
2019-05-20T07:21:20.694Z,14.19
2019-05-20T07:23:47.676Z,14.21
2019-05-20T07:26:14.922Z,14.28
2019-05-20T07:28:41.905Z,14.37
2019-05-20T07:31:08.997Z,14.34
2019-05-20T07:33:35.956Z,14.36
2019-05-20T07:36:02.908Z,14.43
2019-05-20T07:38:29.897Z,14.47
2019-05-20T07:40:57.704Z,14.46
2019-05-20T07:43:25.039Z,14.43
2019-05-20T07:45:52.398Z,14.40
2019-05-20T07:48:37.894Z,14.50
2019-05-20T07:51:05.686Z,14.47
2019-05-20T07:53:33.597Z,14.49
2019-05-20T07:56:06.333Z,14.57
2019-05-20T07:58:35.826Z,14.62
2019-05-20T08:01:04.583Z,14.59
2019-05-20T08:03:31.578Z,14.46
2019-05-20T08:05:58.510Z,14.45
2019-05-20T08:08:25.469Z,14.42
2019-05-20T08:10:52.453Z,14.41
2019-05-20T08:13:20.495Z,14.35
2019-05-20T08:15:47.423Z,14.48
2019-05-20T08:18:17.905Z,14.68
2019-05-20T08:20:44.568Z,14.72
2019-05-20T08:23:11.622Z,14.78
2019-05-20T08:25:38.653Z,14.79
2019-05-20T08:28:05.688Z,14.86
2019-05-20T08:30:34.692Z,14.91
2019-05-20T08:33:01.739Z,14.89
2019-05-20T08:35:28.681Z,14.92
2019-05-20T08:37:55.675Z,15.04
2019-05-20T08:40:22.631Z,14.97
2019-05-20T08:42:49.686Z,14.97
2019-05-20T08:45:16.938Z,14.93
2019-05-20T08:47:43.943Z,14.84
2019-05-20T08:50:16.111Z,14.85
2019-05-20T08:52:41.857Z,14.90
2019-05-20T08:55:08.801Z,14.97
2019-05-20T08:57:35.880Z,14.99
2019-05-20T09:00:03.442Z,15.02
2019-05-20T09:02:30.529Z,15.14
2019-05-20T09:04:57.495Z,15.12
2019-05-20T09:07:24.445Z,15.18
2019-05-20T09:09:51.398Z,15.21
2019-05-20T09:12:18.392Z,15.05
2019-05-20T09:14:45.329Z,15.02
2019-05-20T09:17:12.433Z,15.08
2019-05-20T09:19:39.388Z,15.06
2019-05-20T09:22:06.340Z,14.93
2019-05-20T09:24:33.554Z,14.96
2019-05-20T09:27:00.727Z,14.96
2019-05-20T09:29:27.682Z,15.05
2019-05-20T09:31:54.730Z,15.05
2019-05-20T09:34:21.668Z,15.06
2019-05-20T09:36:48.630Z,14.99
2019-05-20T09:39:15.664Z,15.01
2019-05-20T09:41:42.605Z,15.03
2019-05-20T09:44:09.539Z,15.09
2019-05-20T09:46:36.572Z,15.14
2019-05-20T09:49:03.550Z,15.12
2019-05-20T09:51:30.517Z,15.20
2019-05-20T09:53:57.491Z,15.22
2019-05-20T09:56:26.230Z,15.32
2019-05-20T09:58:53.252Z,15.32
2019-05-20T10:01:20.330Z,15.23
2019-05-20T10:03:47.541Z,15.22
2019-05-20T10:06:14.709Z,15.17
2019-05-20T10:08:45.029Z,15.25
2019-05-20T10:11:10.744Z,15.38
2019-05-20T10:13:37.701Z,15.46
2019-05-20T10:16:04.759Z,15.46
2019-05-20T10:18:37.425Z,15.37
2019-05-20T10:21:00.578Z,15.42
2019-05-20T10:23:27.578Z,15.36
2019-05-20T10:25:54.598Z,15.29
2019-05-20T10:28:21.636Z,15.41
2019-05-20T10:30:48.663Z,15.48
2019-05-20T10:33:15.586Z,15.56
2019-05-20T10:35:42.556Z,15.73
2019-05-20T10:38:09.533Z,15.96
2019-05-20T10:40:37.233Z,16.04
2019-05-20T10:43:04.305Z,16.10
2019-05-20T10:45:32.215Z,16.25
2019-05-20T10:47:59.245Z,16.24
2019-05-20T10:50:26.177Z,16.20
2019-05-20T10:52:53.165Z,16.23
2019-05-20T10:55:20.160Z,16.19
2019-05-20T10:57:48.245Z,16.16
2019-05-20T11:00:15.690Z,16.24
2019-05-20T11:02:42.659Z,16.33
2019-05-20T11:05:09.923Z,16.45
2019-05-20T11:07:36.980Z,16.38
2019-05-20T11:10:05.211Z,16.33
2019-05-20T11:12:32.214Z,16.38
2019-05-20T11:14:59.203Z,16.44
2019-05-20T11:17:26.166Z,16.50
2019-05-20T11:19:53.152Z,16.69
2019-05-20T11:22:20.149Z,16.67
2019-05-20T11:24:48.984Z,16.60
2019-05-20T11:27:15.970Z,16.70
2019-05-20T11:29:44.941Z,16.80
2019-05-20T11:32:11.911Z,17.00
2019-05-20T11:34:38.916Z,17.02
2019-05-20T11:37:05.914Z,16.97
2019-05-20T11:39:34.185Z,17.03
2019-05-20T11:42:01.271Z,17.11
2019-05-20T11:44:28.231Z,16.93
2019-05-20T11:46:55.226Z,16.97
2019-05-20T11:49:22.180Z,17.00
2019-05-20T11:51:49.118Z,17.02
2019-05-20T11:54:16.108Z,17.04
2019-05-20T11:56:43.065Z,17.10
2019-05-20T11:59:10.116Z,17.12
2019-05-20T12:01:37.126Z,16.81
2019-05-20T12:04:04.146Z,16.78
2019-05-20T12:06:31.178Z,16.85
2019-05-20T12:08:58.152Z,16.73
2019-05-20T12:11:25.110Z,16.63
2019-05-20T12:13:52.067Z,16.66
2019-05-20T12:16:19.049Z,16.57
2019-05-20T12:18:46.009Z,16.68
2019-05-20T12:21:14.764Z,16.75
2019-05-20T12:23:43.542Z,16.71
2019-05-20T12:26:10.528Z,16.77
2019-05-20T12:28:38.648Z,16.89
2019-05-20T12:31:05.659Z,16.84
2019-05-20T12:33:32.662Z,16.74
2019-05-20T12:35:59.604Z,16.85
2019-05-20T12:38:26.602Z,16.84
2019-05-20T12:40:53.624Z,16.76
2019-05-20T12:43:20.576Z,16.90
2019-05-20T12:45:47.627Z,16.86
2019-05-20T12:48:14.653Z,16.84
2019-05-20T12:50:41.711Z,16.86
2019-05-20T12:53:08.649Z,17.03
2019-05-20T12:55:35.801Z,16.98
2019-05-20T12:58:02.845Z,16.97
2019-05-20T13:00:29.803Z,16.97
2019-05-20T13:02:56.768Z,16.93
2019-05-20T13:05:23.748Z,16.91
2019-05-20T13:07:50.840Z,16.93
2019-05-20T13:10:29.130Z,17.02
2019-05-20T13:12:50.241Z,17.01
2019-05-20T13:15:17.496Z,16.92
2019-05-20T13:17:45.411Z,16.79
2019-05-20T13:20:12.948Z,16.80
2019-05-20T13:22:39.937Z,16.63
2019-05-20T13:25:07.185Z,16.63
2019-05-20T13:27:35.273Z,16.62
2019-05-20T13:30:02.427Z,16.63
2019-05-20T13:32:29.435Z,16.63
2019-05-20T13:34:56.399Z,16.62
2019-05-20T13:37:23.439Z,16.68
2019-05-20T13:39:50.558Z,16.67
2019-05-20T13:42:17.497Z,16.69
2019-05-20T13:44:44.480Z,16.62
2019-05-20T13:47:11.435Z,16.68
2019-05-20T13:49:40.603Z,16.67
2019-05-20T13:52:10.484Z,16.80
2019-05-20T13:54:37.576Z,16.74
2019-05-20T13:57:05.676Z,16.81
2019-05-20T13:59:32.676Z,16.79
2019-05-20T14:01:59.695Z,16.90
2019-05-20T14:04:26.636Z,16.98
2019-05-20T14:06:53.824Z,16.89
2019-05-20T14:09:20.908Z,16.90
2019-05-20T14:11:47.972Z,16.84
2019-05-20T14:14:14.986Z,16.70
2019-05-20T14:16:41.953Z,16.69
2019-05-20T14:19:08.881Z,16.71
2019-05-20T14:21:35.880Z,16.69
2019-05-20T14:24:02.939Z,16.76
2019-05-20T14:26:29.927Z,16.81
2019-05-20T14:28:57.086Z,16.73
2019-05-20T14:31:24.059Z,16.77
2019-05-20T14:33:51.022Z,16.68
2019-05-20T14:36:37.985Z,16.56
2019-05-20T14:38:46.904Z,16.52
2019-05-20T14:41:21.594Z,16.50
2019-05-20T14:43:42.804Z,16.48
2019-05-20T14:46:09.950Z,16.54
2019-05-20T14:48:36.924Z,16.51
2019-05-20T14:51:04.075Z,16.42
2019-05-20T14:53:31.034Z,16.40
2019-05-20T14:55:57.986Z,16.42
2019-05-20T14:58:24.967Z,16.39
2019-05-20T15:00:52.036Z,16.46
2019-05-20T15:03:18.983Z,16.39
2019-05-20T15:05:45.957Z,16.37
2019-05-20T15:08:12.916Z,16.39
2019-05-20T15:10:39.868Z,16.42
2019-05-20T15:13:06.924Z,16.28
2019-05-20T15:15:34.296Z,16.28
2019-05-20T15:18:01.278Z,16.26
2019-05-20T15:20:29.358Z,16.21
2019-05-20T15:22:56.460Z,16.16
2019-05-20T15:25:23.409Z,16.15
2019-05-20T15:27:52.202Z,16.13
2019-05-20T15:30:19.228Z,16.14
2019-05-20T15:32:46.182Z,16.22
2019-05-20T15:35:13.318Z,16.24
2019-05-20T15:37:40.250Z,16.25
2019-05-20T15:40:07.530Z,16.24
2019-05-20T15:42:35.685Z,16.25
2019-05-20T15:45:06.479Z,16.21
2019-05-20T15:47:33.432Z,16.20
2019-05-20T15:50:00.422Z,16.19
2019-05-20T15:52:27.364Z,16.24
2019-05-20T15:54:54.323Z,16.30
2019-05-20T15:57:21.296Z,16.41
2019-05-20T15:59:48.264Z,16.48
2019-05-20T16:02:15.219Z,16.50
2019-05-20T16:04:42.270Z,16.39
2019-05-20T16:07:09.319Z,16.37
2019-05-20T16:09:36.304Z,16.44
2019-05-20T16:12:03.259Z,16.42
2019-05-20T16:14:30.216Z,16.36
2019-05-20T16:16:57.276Z,16.35
2019-05-20T16:19:24.321Z,16.28
2019-05-20T16:21:51.265Z,16.29
2019-05-20T16:24:18.390Z,16.24
2019-05-20T16:26:45.550Z,16.22
2019-05-20T16:29:12.600Z,16.24
2019-05-20T16:31:39.715Z,16.22
2019-05-20T16:34:06.696Z,16.22
2019-05-20T16:36:33.747Z,16.14
2019-05-20T16:39:00.769Z,16.20
2019-05-20T16:41:27.724Z,16.09
2019-05-20T16:43:55.771Z,16.09
2019-05-20T16:46:23.080Z,16.03
2019-05-20T16:48:50.037Z,16.09
2019-05-20T16:51:17.000Z,15.97
2019-05-20T16:53:43.997Z,16.07
2019-05-20T16:56:10.955Z,16.09
2019-05-20T16:58:41.102Z,16.13
2019-05-20T17:01:08.135Z,16.17
2019-05-20T17:03:35.137Z,16.24
2019-05-20T17:06:02.116Z,16.27
2019-05-20T17:08:29.249Z,16.34
2019-05-20T17:10:56.223Z,16.27
2019-05-20T17:13:23.202Z,16.30
2019-05-20T17:15:50.298Z,16.33
2019-05-20T17:18:17.271Z,16.27
2019-05-20T17:20:46.301Z,16.36
2019-05-20T17:23:14.299Z,16.43
2019-05-20T17:25:43.131Z,16.33
2019-05-20T17:28:10.128Z,16.34
2019-05-20T17:30:44.902Z,16.30
2019-05-20T17:33:06.037Z,16.29
2019-05-20T17:35:32.985Z,16.21
2019-05-20T17:38:00.295Z,16.14
2019-05-20T17:40:27.290Z,16.11
2019-05-20T17:42:54.273Z,16.10
2019-05-20T17:45:21.372Z,16.11
2019-05-20T17:47:48.334Z,15.98
2019-05-20T17:50:15.813Z,15.98
2019-05-20T17:52:42.812Z,15.87
2019-05-20T17:55:10.617Z,15.77
2019-05-20T17:57:37.757Z,15.76
2019-05-20T18:00:04.970Z,15.80
2019-05-20T18:02:31.977Z,15.67
2019-05-20T18:04:58.994Z,15.70
2019-05-20T18:07:27.070Z,15.64
2019-05-20T18:09:55.109Z,15.53
2019-05-20T18:12:22.103Z,15.52
2019-05-20T18:14:52.284Z,15.55
2019-05-20T18:17:19.585Z,15.57
2019-05-20T18:19:46.696Z,15.51
2019-05-20T18:22:13.666Z,15.50
2019-05-20T18:24:40.738Z,15.44
2019-05-20T18:27:08.863Z,15.46
2019-05-20T18:29:35.908Z,15.43
2019-05-20T18:32:03.141Z,15.35
2019-05-20T18:34:30.099Z,15.30
2019-05-20T18:36:57.092Z,15.31
2019-05-20T18:39:24.087Z,15.22
2019-05-20T18:41:51.041Z,15.19
2019-05-20T18:44:18.122Z,15.17
2019-05-20T18:46:45.383Z,15.15
2019-05-20T18:49:14.252Z,15.16
2019-05-20T18:51:41.241Z,15.15
2019-05-20T18:54:08.854Z,15.15
2019-05-20T18:56:35.859Z,15.08
2019-05-20T18:59:02.982Z,15.08
2019-05-20T19:01:29.972Z,15.04
2019-05-20T19:03:56.953Z,15.01
2019-05-20T19:06:25.446Z,14.98
2019-05-20T19:08:52.431Z,14.97
2019-05-20T19:11:21.141Z,14.96
2019-05-20T19:13:48.152Z,14.95
2019-05-20T19:16:15.132Z,14.93
2019-05-20T19:18:42.131Z,14.91
2019-05-20T19:21:09.142Z,14.92
2019-05-20T19:23:38.595Z,14.88
2019-05-20T19:26:05.628Z,14.91
2019-05-20T19:28:32.597Z,14.88
2019-05-20T19:30:59.723Z,14.88
2019-05-20T19:33:26.984Z,14.85
2019-05-20T19:35:54.031Z,14.87
2019-05-20T19:38:21.014Z,14.84
2019-05-20T19:40:48.230Z,14.81
2019-05-20T19:43:15.197Z,14.78
2019-05-20T19:45:42.227Z,14.85
2019-05-20T19:48:09.335Z,14.77
2019-05-20T19:50:36.313Z,14.75
2019-05-20T19:53:03.302Z,14.71
2019-05-20T19:55:30.305Z,14.74
2019-05-20T19:57:57.377Z,14.66
2019-05-20T20:00:24.339Z,14.68
2019-05-20T20:02:51.547Z,14.63
2019-05-20T20:05:18.501Z,14.63
2019-05-20T20:07:45.754Z,14.64
2019-05-20T20:10:13.052Z,14.58
2019-05-20T20:12:40.057Z,14.58
2019-05-20T20:15:09.077Z,14.57
2019-05-20T20:17:36.085Z,14.57
2019-05-20T20:20:03.212Z,14.54
2019-05-20T20:22:30.258Z,14.48
2019-05-20T20:24:58.311Z,14.44
2019-05-20T20:27:25.316Z,14.41
2019-05-20T20:29:52.314Z,14.45
2019-05-20T20:32:35.160Z,14.40
2019-05-20T20:34:48.283Z,14.38
2019-05-20T20:37:15.242Z,14.39
2019-05-20T20:39:42.270Z,14.45
2019-05-20T20:42:09.286Z,14.38
2019-05-20T20:44:36.290Z,14.34
2019-05-20T20:47:03.291Z,14.30
2019-05-20T20:49:30.881Z,14.36
2019-05-20T20:51:58.489Z,14.28
2019-05-20T20:54:25.456Z,14.25
2019-05-20T20:56:52.480Z,14.28
2019-05-20T20:59:19.604Z,14.24
2019-05-20T21:01:46.607Z,14.27
2019-05-20T21:04:13.680Z,14.22
2019-05-20T21:06:40.676Z,14.21
2019-05-20T21:09:07.735Z,14.16
2019-05-20T21:11:34.708Z,14.18
2019-05-20T21:14:01.780Z,14.16
2019-05-20T21:16:28.738Z,14.23
2019-05-20T21:18:55.761Z,14.16
2019-05-20T21:21:22.706Z,14.20
2019-05-20T21:23:49.674Z,14.19
2019-05-20T21:26:20.136Z,14.10
2019-05-20T21:28:47.209Z,13.99
2019-05-20T21:31:15.903Z,13.93
2019-05-20T21:33:42.998Z,13.87
2019-05-20T21:36:09.965Z,13.88
2019-05-20T21:38:38.789Z,13.83
2019-05-20T21:41:05.804Z,13.78
2019-05-20T21:43:32.782Z,13.76
2019-05-20T21:45:59.773Z,13.76
2019-05-20T21:48:26.801Z,13.69
2019-05-20T21:50:53.875Z,13.68
2019-05-20T21:53:21.079Z,13.66
2019-05-20T21:55:48.230Z,13.64
2019-05-20T21:58:15.322Z,13.54
2019-05-20T22:00:50.331Z,13.54
2019-05-20T22:03:24.388Z,13.42
2019-05-20T22:05:46.491Z,13.40
2019-05-20T22:08:13.662Z,13.41
2019-05-20T22:10:40.928Z,13.35
2019-05-20T22:13:08.018Z,13.31
2019-05-20T22:15:35.158Z,13.31
2019-05-20T22:18:02.229Z,13.22
2019-05-20T22:20:29.332Z,13.22
2019-05-20T22:25:58.974Z,13.12
2019-05-20T22:28:26.037Z,13.08
2019-05-20T22:31:14.291Z,13.09
2019-05-20T22:33:42.766Z,13.05
2019-05-20T22:36:10.103Z,13.00
2019-05-20T22:38:39.600Z,12.99
2019-05-20T22:41:06.662Z,12.97
2019-05-20T22:43:33.765Z,12.96
2019-05-20T22:46:00.951Z,12.89
2019-05-20T22:48:28.052Z,12.83
2019-05-20T22:51:01.246Z,12.76
2019-05-20T22:53:28.361Z,12.76
2019-05-20T22:55:55.458Z,12.71
2019-05-20T22:58:23.642Z,12.62
2019-05-20T23:00:50.996Z,12.55
2019-05-20T23:03:18.326Z,12.52
2019-05-20T23:05:45.408Z,12.48
2019-05-20T23:08:12.528Z,12.42
2019-05-20T23:10:39.638Z,12.37
2019-05-20T23:13:06.834Z,12.35
2019-05-20T23:15:33.938Z,12.34
2019-05-20T23:18:01.024Z,12.26
2019-05-20T23:20:28.143Z,12.23
2019-05-20T23:22:55.409Z,12.17
2019-05-20T23:25:22.474Z,12.20
2019-05-20T23:27:49.555Z,12.18
2019-05-20T23:30:16.937Z,12.22
2019-05-20T23:32:44.089Z,12.12
2019-05-20T23:35:11.266Z,12.12
2019-05-20T23:37:38.602Z,12.07
2019-05-20T23:40:06.219Z,12.06
2019-05-20T23:42:33.418Z,12.07
2019-05-20T23:45:02.065Z,12.06
2019-05-20T23:47:29.160Z,12.04
2019-05-20T23:49:56.236Z,12.07
2019-05-20T23:52:23.448Z,12.03
2019-05-20T23:54:50.525Z,12.03
2019-05-20T23:57:17.603Z,12.02
2019-05-20T23:59:44.689Z,12.02
